DW5856 Weather Reports


Display with metric or nautical units.
time (UTC)temp
F
wind
direction
speed
MPH
gust
MPH
rain 1hr
in
rain 24hr
in
rain mn
in
humidity
%
barometer
mb
20240304140028 20 259 0.0 4.0 0.00 0.00 0.00 79 1012.1
20240304134530 20 271 1.0 4.0 0.00 0.00 0.00 79 1011.7
20240304133028 20 274 2.0 4.0 0.00 0.00 0.00 77 1011.7
20240304131525 21 279 3.0 6.0 0.00 0.00 0.00 78 1011.6
20240304130014 21 286 4.0 7.0 0.00 0.00 0.00 81 1011.4
20240304124508 20 294 2.0 4.0 0.00 0.00 0.00 80 1011.2
20240304123007 19 285 1.0 4.0 0.00 0.00 0.00 79 1011.1
20240304121502 20 295 1.0 5.0 0.00 0.00 0.00 78 1010.8
20240304120114 20 332 0.0 3.0 0.00 0.00 0.00 77 1010.7
20240304114557 20 346 1.0 3.0 0.00 0.00 0.00 74 1010.4
20240304113054 20 355 3.0 4.0 0.00 0.00 0.00 75 1010.3
20240304111550 20 344 2.0 4.0 0.00 0.00 0.00 72 1010.0
20240304110045 22 355 0.0 3.0 0.00 0.00 0.00 68 1009.8
20240304104542 23 360 0.0 3.0 0.00 0.00 0.00 69 1009.5
20240304103041 24 360 0.0 2.0 0.00 0.00 0.00 68 1009.4
20240304101535 25 360 0.0 1.0 0.00 0.00 0.00 66 1009.2
20240304100031 27 65 0.0 2.0 0.00 0.00 0.00 65 1009.1
20240304094527 28 150 0.0 3.0 0.00 0.00 0.00 63 1008.9
20240304093023 29 336 0.0 5.0 0.00 0.00 0.00 61 1008.7
20240304091524 30 325 2.0 4.0 0.00 0.00 0.00 61 1008.7
20240304090020 30 336 0.0 2.0 0.00 0.00 0.00 61 1008.7
20240304084517 31 324 3.0 7.0 0.00 0.00 0.00 61 1008.8
20240304083015 31 303 0.0 6.0 0.00 0.00 0.00 59 1008.5
20240304081613 31 244 4.0 12.0 0.00 0.00 0.00 58 1008.2
20240304080011 31 201 10.0 16.0 0.00 0.00 0.00 59 1007.9
20240304074508 31 184 9.0 15.0 0.00 0.00 0.00 57 1007.8
20240304073005 31 200 11.0 19.0 0.00 0.00 0.00 57 1007.5
20240304071502 31 188 11.0 22.0 0.00 0.00 0.00 59 1007.2
20240304070100 31 183 8.0 16.0 0.00 0.00 0.00 60 1007.0
20240304064559 31 216 11.0 17.0 0.00 0.00 0.00 59 1007.1
20240304063100 31 205 12.0 19.0 0.00 0.00 0.00 59 1006.4
20240304061556 31 173 13.0 21.0 0.00 0.00 0.00 60 1006.6
20240304060053 31 193 11.0 21.0 0.00 0.00 0.00 62 1006.8
20240304054553 31 161 8.0 19.0 0.00 0.00 0.00 63 1006.0
20240304053048 32 138 9.0 22.0 0.00 0.00 0.00 63 1005.7
20240304051554 32 189 15.0 23.0 0.00 0.00 0.00 60 1005.6
20240304050045 33 190 6.0 12.0 0.00 0.00 0.00 61 1004.6
20240304044543 33 163 8.0 12.0 0.00 0.00 0.00 60 1004.8
20240304043041 34 171 5.0 13.0 0.00 0.00 0.00 59 1004.3
20240304041540 35 188 10.0 14.0 0.00 0.00 0.00 57 1004.0
20240304040051 37 200 5.0 7.0 0.00 0.00 0.00 52 1003.7
20240304034541 37 279 5.0 14.0 0.00 0.00 0.00 49 1003.5
20240304033038 37 298 9.0 15.0 0.00 0.00 0.00 51 1003.4
20240304031532 36 338 8.0 20.0 0.00 0.00 0.00 52 1002.6
20240304030036 36 329 18.0 23.0 0.00 0.00 0.00 52 1002.7
20240304024533 34 301 18.0 28.0 0.00 0.00 0.00 54 1002.1
20240304023029 33 310 26.0 40.0 0.00 0.00 0.00 60 1001.7
20240304021525 33 321 28.0 38.0 0.00 0.00 0.00 56 1001.4
20240304020025 34 304 21.0 33.0 0.00 0.00 0.00 51 1001.8
20240304014523 36 344 18.0 33.0 0.00 0.00 0.00 52 1001.0
20240304013021 34 5 18.0 27.0 0.00 0.00 0.00 56 1000.7
20240304011520 34 13 18.0 23.0 0.00 0.00 0.00 57 1001.1
20240304010018 35 355 16.0 21.0 0.00 0.00 0.00 57 1000.5
20240304004515 38 11 7.0 11.0 0.00 0.00 0.00 47 1000.3
20240304003020 42 212 5.0 14.0 0.00 0.00 0.00 38 999.8
20240304001510 43 186 11.0 18.0 0.00 0.00 0.00 37 999.7
20240304000011 44 184 10.0 15.0 0.00 0.00 0.00 34 999.3
20240303234512 45 202 8.0 17.0 0.00 0.00 0.00 31 999.2
20240303233009 46 222 8.0 20.0 0.00 0.00 0.00 29 999.3
20240303231508 46 234 7.0 19.0 0.00 0.00 0.00 27 998.7
20240303230008 47 277 9.0 24.0 0.00 0.00 0.00 27 998.3
20240303224512 47 193 14.0 27.0 0.00 0.00 0.00 28 998.2
20240303223006 46 229 9.0 23.0 0.00 0.00 0.00 29 998.3
20240303221506 48 205 7.0 18.0 0.00 0.00 0.00 29 997.7
20240303220012 48 244 12.0 30.0 0.00 0.00 0.00 28 997.8
20240303214506 48 202 13.0 21.0 0.00 0.00 0.00 27 997.9
20240303213004 48 181 8.0 22.0 0.00 0.00 0.00 28 997.7
20240303211503 48 194 13.0 20.0 0.00 0.00 0.00 27 997.7
20240303210100 48 156 9.0 21.0 0.00 0.00 0.00 27 997.5
20240303204559 48 216 10.0 24.0 0.00 0.00 0.00 29 997.7
20240303203058 47 222 14.0 23.0 0.00 0.00 0.00 29 997.9
20240303201616 47 307 14.0 23.0 0.00 0.00 0.00 32 997.8
20240303200100 44 201 8.0 21.0 0.00 0.00 0.00 37 998.0
20240303194552 43 259 14.0 22.0 0.00 0.00 0.00 41 998.4
20240303193059 42 254 12.0 20.0 0.00 0.00 0.00 43 998.7
20240303191549 40 167 10.0 19.0 0.00 0.00 0.00 44 999.5
20240303190048 42 195 8.0 22.0 0.00 0.00 0.00 41 999.4
20240303184549 41 245 9.0 17.0 0.00 0.00 0.00 37 999.6
20240303183046 42 139 8.0 13.0 0.00 0.00 0.00 35 999.7
20240303181546 42 200 6.0 14.0 0.00 0.00 0.00 33 999.6
20240303180047 42 243 7.0 19.0 0.00 0.00 0.00 33 999.4
20240303174544 41 184 12.0 22.0 0.00 0.00 0.00 32 999.7
20240303173059 41 244 9.0 23.0 0.00 0.00 0.00 32 999.6
20240303171540 41 225 10.0 20.0 0.00 0.00 0.00 31 999.4
20240303170041 41 245 12.0 26.0 0.00 0.00 0.00 29 999.2
20240303164544 42 248 13.0 20.0 0.00 0.00 0.00 30 998.8
20240303163038 41 178 10.0 22.0 0.00 0.00 0.00 29 998.9
20240303161548 42 236 13.0 27.0 0.00 0.00 0.00 28 998.6
20240303160036 41 209 16.0 24.0 0.00 0.00 0.00 28 998.4
20240303154535 41 265 14.0 24.0 0.00 0.00 0.00 28 998.5
20240303153038 39 277 13.0 20.0 0.00 0.00 0.00 27 998.9
20240303151536 38 38 3.0 7.0 0.00 0.00 0.00 30 998.7
20240303150041 37 122 6.0 11.0 0.00 0.00 0.00 34 998.6
20240303144531 36 158 4.0 9.0 0.00 0.00 0.00 31 998.7
20240303143029 34 121 3.0 8.0 0.00 0.00 0.00 32 998.0
20240303141535 32 111 3.0 8.0 0.00 0.00 0.00 34 997.9